<?xml version="1.0" encoding="UTF-8" standalone="no" ?>
<gpx xmlns="http://www.topografix.com/GPX/1/1" xmlns:xsi="http://www.w3.org/2001/XMLSchema-instance" xsi:schemaLocation="http://www.topografix.com/GPX/1/1 http://www.topografix.com/GPX/1/1/gpx.xsd" version="1.1" creator="VisuGPX - https://www.visugpx.com">
  <metadata>
    <name>83 - V - Callas</name>
    <desc><![CDATA[Randonnée courte qui évite le camp naturiste et la propriété privée de la basse Garduère]]></desc>
  </metadata>
  <wpt lat="43.55429" lon="6.55726">
    <ele>267</ele>
    <name><![CDATA[Point de passage 1]]></name>
  </wpt>
  <wpt lat="43.55426" lon="6.55727">
    <ele>267</ele>
    <name><![CDATA[Point de passage 2]]></name>
  </wpt>
  <trk>
    <name><![CDATA[7 févr. 2026]]></name>
    <extensions>
      <line xmlns="http://www.topografix.com/GPX/gpx_style/0/2">
        <color>0000FF</color>
        <width>4</width>
      </line>
    </extensions>
    <trkseg>
      <trkpt lat="43.55429" lon="6.55726">
        <ele>267</ele>
        <time>2026-02-07T16:05:54.000Z</time>
      </trkpt>
      <trkpt lat="43.55429" lon="6.55726">
        <ele>267</ele>
        <time>2026-02-07T16:05:54.000Z</time>
      </trkpt>
      <trkpt lat="43.55431" lon="6.55735">
        <ele>268</ele>
        <time>2026-02-07T16:06:12.000Z</time>
      </trkpt>
      <trkpt lat="43.55434" lon="6.55739">
        <ele>269</ele>
        <time>2026-02-07T16:06:28.000Z</time>
      </trkpt>
      <trkpt lat="43.55442" lon="6.55748">
        <ele>270</ele>
        <time>2026-02-07T16:06:49.000Z</time>
      </trkpt>
      <trkpt lat="43.55447" lon="6.55753">
        <ele>271</ele>
        <time>2026-02-07T16:07:07.000Z</time>
      </trkpt>
      <trkpt lat="43.55452" lon="6.55756">
        <ele>272</ele>
        <time>2026-02-07T16:07:23.000Z</time>
      </trkpt>
      <trkpt lat="43.55457" lon="6.55759">
        <ele>273</ele>
        <time>2026-02-07T16:07:40.000Z</time>
      </trkpt>
      <trkpt lat="43.55462" lon="6.55763">
        <ele>274</ele>
        <time>2026-02-07T16:07:57.000Z</time>
      </trkpt>
      <trkpt lat="43.55475" lon="6.55769">
        <ele>277</ele>
        <time>2026-02-07T16:08:44.000Z</time>
      </trkpt>
      <trkpt lat="43.55482" lon="6.55772">
        <ele>278</ele>
        <time>2026-02-07T16:09:02.000Z</time>
      </trkpt>
      <trkpt lat="43.55488" lon="6.55773">
        <ele>279</ele>
        <time>2026-02-07T16:09:19.000Z</time>
      </trkpt>
      <trkpt lat="43.55493" lon="6.55773">
        <ele>280</ele>
        <time>2026-02-07T16:09:35.000Z</time>
      </trkpt>
      <trkpt lat="43.55498" lon="6.55775">
        <ele>282</ele>
        <time>2026-02-07T16:10:01.000Z</time>
      </trkpt>
      <trkpt lat="43.55511" lon="6.55778">
        <ele>284</ele>
        <time>2026-02-07T16:10:37.000Z</time>
      </trkpt>
      <trkpt lat="43.55534" lon="6.55767">
        <ele>289</ele>
        <time>2026-02-07T16:11:56.000Z</time>
      </trkpt>
      <trkpt lat="43.55546" lon="6.55762">
        <ele>290</ele>
        <time>2026-02-07T16:12:20.000Z</time>
      </trkpt>
      <trkpt lat="43.55555" lon="6.55757">
        <ele>291</ele>
        <time>2026-02-07T16:12:42.000Z</time>
      </trkpt>
      <trkpt lat="43.5556" lon="6.55755">
        <ele>292</ele>
        <time>2026-02-07T16:12:58.000Z</time>
      </trkpt>
      <trkpt lat="43.55593" lon="6.55744">
        <ele>299</ele>
        <time>2026-02-07T16:14:50.000Z</time>
      </trkpt>
      <trkpt lat="43.55599" lon="6.55743">
        <ele>301</ele>
        <time>2026-02-07T16:15:18.000Z</time>
      </trkpt>
      <trkpt lat="43.55626" lon="6.55737">
        <ele>305</ele>
        <time>2026-02-07T16:16:30.000Z</time>
      </trkpt>
      <trkpt lat="43.55631" lon="6.55736">
        <ele>305</ele>
        <time>2026-02-07T16:16:36.000Z</time>
      </trkpt>
      <trkpt lat="43.55636" lon="6.55735">
        <ele>306</ele>
        <time>2026-02-07T16:16:53.000Z</time>
      </trkpt>
      <trkpt lat="43.55648" lon="6.55732">
        <ele>309</ele>
        <time>2026-02-07T16:17:37.000Z</time>
      </trkpt>
      <trkpt lat="43.55653" lon="6.55731">
        <ele>309</ele>
        <time>2026-02-07T16:17:43.000Z</time>
      </trkpt>
      <trkpt lat="43.55658" lon="6.5573">
        <ele>310</ele>
        <time>2026-02-07T16:18:00.000Z</time>
      </trkpt>
      <trkpt lat="43.5567" lon="6.55729">
        <ele>312</ele>
        <time>2026-02-07T16:18:35.000Z</time>
      </trkpt>
      <trkpt lat="43.55675" lon="6.55728">
        <ele>312</ele>
        <time>2026-02-07T16:18:40.000Z</time>
      </trkpt>
      <trkpt lat="43.5568" lon="6.55727">
        <ele>312</ele>
        <time>2026-02-07T16:18:46.000Z</time>
      </trkpt>
      <trkpt lat="43.55685" lon="6.55725">
        <ele>313</ele>
        <time>2026-02-07T16:19:03.000Z</time>
      </trkpt>
      <trkpt lat="43.55691" lon="6.55724">
        <ele>313</ele>
        <time>2026-02-07T16:19:09.000Z</time>
      </trkpt>
      <trkpt lat="43.55735" lon="6.55727">
        <ele>311</ele>
        <time>2026-02-07T16:20:00.000Z</time>
      </trkpt>
      <trkpt lat="43.55762" lon="6.55733">
        <ele>309</ele>
        <time>2026-02-07T16:20:31.000Z</time>
      </trkpt>
      <trkpt lat="43.55782" lon="6.55739">
        <ele>306</ele>
        <time>2026-02-07T16:20:55.000Z</time>
      </trkpt>
      <trkpt lat="43.55787" lon="6.55739">
        <ele>306</ele>
        <time>2026-02-07T16:21:00.000Z</time>
      </trkpt>
      <trkpt lat="43.55802" lon="6.55741">
        <ele>304</ele>
        <time>2026-02-07T16:21:17.000Z</time>
      </trkpt>
      <trkpt lat="43.5581" lon="6.55742">
        <ele>303</ele>
        <time>2026-02-07T16:21:26.000Z</time>
      </trkpt>
      <trkpt lat="43.55825" lon="6.55749">
        <ele>300</ele>
        <time>2026-02-07T16:21:44.000Z</time>
      </trkpt>
      <trkpt lat="43.55844" lon="6.55758">
        <ele>297</ele>
        <time>2026-02-07T16:22:07.000Z</time>
      </trkpt>
      <trkpt lat="43.55848" lon="6.55761">
        <ele>296</ele>
        <time>2026-02-07T16:22:12.000Z</time>
      </trkpt>
      <trkpt lat="43.55853" lon="6.55765">
        <ele>295</ele>
        <time>2026-02-07T16:22:19.000Z</time>
      </trkpt>
      <trkpt lat="43.55863" lon="6.55765">
        <ele>294</ele>
        <time>2026-02-07T16:22:30.000Z</time>
      </trkpt>
      <trkpt lat="43.55868" lon="6.55765">
        <ele>294</ele>
        <time>2026-02-07T16:22:35.000Z</time>
      </trkpt>
      <trkpt lat="43.55879" lon="6.55765">
        <ele>291</ele>
        <time>2026-02-07T16:22:48.000Z</time>
      </trkpt>
      <trkpt lat="43.55889" lon="6.55765">
        <ele>289</ele>
        <time>2026-02-07T16:22:58.000Z</time>
      </trkpt>
      <trkpt lat="43.55893" lon="6.55766">
        <ele>288</ele>
        <time>2026-02-07T16:23:03.000Z</time>
      </trkpt>
      <trkpt lat="43.55904" lon="6.55765">
        <ele>286</ele>
        <time>2026-02-07T16:23:15.000Z</time>
      </trkpt>
      <trkpt lat="43.55907" lon="6.55772">
        <ele>284</ele>
        <time>2026-02-07T16:23:22.000Z</time>
      </trkpt>
      <trkpt lat="43.55909" lon="6.55779">
        <ele>283</ele>
        <time>2026-02-07T16:23:28.000Z</time>
      </trkpt>
      <trkpt lat="43.55906" lon="6.55784">
        <ele>283</ele>
        <time>2026-02-07T16:23:33.000Z</time>
      </trkpt>
      <trkpt lat="43.55899" lon="6.55792">
        <ele>281</ele>
        <time>2026-02-07T16:23:43.000Z</time>
      </trkpt>
      <trkpt lat="43.55896" lon="6.55797">
        <ele>281</ele>
        <time>2026-02-07T16:23:48.000Z</time>
      </trkpt>
      <trkpt lat="43.55893" lon="6.55803">
        <ele>279</ele>
        <time>2026-02-07T16:23:54.000Z</time>
      </trkpt>
      <trkpt lat="43.5589" lon="6.55808">
        <ele>278</ele>
        <time>2026-02-07T16:23:59.000Z</time>
      </trkpt>
      <trkpt lat="43.55889" lon="6.55834">
        <ele>274</ele>
        <time>2026-02-07T16:24:20.000Z</time>
      </trkpt>
      <trkpt lat="43.55889" lon="6.55842">
        <ele>272</ele>
        <time>2026-02-07T16:24:27.000Z</time>
      </trkpt>
      <trkpt lat="43.55888" lon="6.55854">
        <ele>272</ele>
        <time>2026-02-07T16:24:37.000Z</time>
      </trkpt>
      <trkpt lat="43.55887" lon="6.55871">
        <ele>273</ele>
        <time>2026-02-07T16:25:02.000Z</time>
      </trkpt>
      <trkpt lat="43.55884" lon="6.55878">
        <ele>273</ele>
        <time>2026-02-07T16:25:08.000Z</time>
      </trkpt>
      <trkpt lat="43.55876" lon="6.55921">
        <ele>273</ele>
        <time>2026-02-07T16:25:45.000Z</time>
      </trkpt>
      <trkpt lat="43.55872" lon="6.55933">
        <ele>273</ele>
        <time>2026-02-07T16:25:56.000Z</time>
      </trkpt>
      <trkpt lat="43.55871" lon="6.5594">
        <ele>272</ele>
        <time>2026-02-07T16:26:01.000Z</time>
      </trkpt>
      <trkpt lat="43.55871" lon="6.5595">
        <ele>271</ele>
        <time>2026-02-07T16:26:09.000Z</time>
      </trkpt>
      <trkpt lat="43.55871" lon="6.55956">
        <ele>270</ele>
        <time>2026-02-07T16:26:14.000Z</time>
      </trkpt>
      <trkpt lat="43.55871" lon="6.5597">
        <ele>270</ele>
        <time>2026-02-07T16:26:26.000Z</time>
      </trkpt>
      <trkpt lat="43.55862" lon="6.55991">
        <ele>268</ele>
        <time>2026-02-07T16:26:46.000Z</time>
      </trkpt>
      <trkpt lat="43.55856" lon="6.56">
        <ele>269</ele>
        <time>2026-02-07T16:27:07.000Z</time>
      </trkpt>
      <trkpt lat="43.55851" lon="6.56003">
        <ele>270</ele>
        <time>2026-02-07T16:27:23.000Z</time>
      </trkpt>
      <trkpt lat="43.55833" lon="6.56025">
        <ele>270</ele>
        <time>2026-02-07T16:27:51.000Z</time>
      </trkpt>
      <trkpt lat="43.55828" lon="6.56029">
        <ele>270</ele>
        <time>2026-02-07T16:27:57.000Z</time>
      </trkpt>
      <trkpt lat="43.55825" lon="6.56034">
        <ele>269</ele>
        <time>2026-02-07T16:28:03.000Z</time>
      </trkpt>
      <trkpt lat="43.55827" lon="6.56041">
        <ele>267</ele>
        <time>2026-02-07T16:28:09.000Z</time>
      </trkpt>
      <trkpt lat="43.55822" lon="6.56044">
        <ele>267</ele>
        <time>2026-02-07T16:28:15.000Z</time>
      </trkpt>
      <trkpt lat="43.55815" lon="6.56049">
        <ele>269</ele>
        <time>2026-02-07T16:28:45.000Z</time>
      </trkpt>
      <trkpt lat="43.55811" lon="6.56054">
        <ele>268</ele>
        <time>2026-02-07T16:28:52.000Z</time>
      </trkpt>
      <trkpt lat="43.55811" lon="6.56061">
        <ele>266</ele>
        <time>2026-02-07T16:28:58.000Z</time>
      </trkpt>
      <trkpt lat="43.55816" lon="6.56063">
        <ele>265</ele>
        <time>2026-02-07T16:29:04.000Z</time>
      </trkpt>
      <trkpt lat="43.55813" lon="6.56062">
        <ele>266</ele>
        <time>2026-02-07T16:29:17.000Z</time>
      </trkpt>
      <trkpt lat="43.55811" lon="6.56069">
        <ele>264</ele>
        <time>2026-02-07T16:29:24.000Z</time>
      </trkpt>
      <trkpt lat="43.55808" lon="6.56083">
        <ele>262</ele>
        <time>2026-02-07T16:29:36.000Z</time>
      </trkpt>
      <trkpt lat="43.55808" lon="6.56091">
        <ele>260</ele>
        <time>2026-02-07T16:29:43.000Z</time>
      </trkpt>
      <trkpt lat="43.55807" lon="6.56103">
        <ele>257</ele>
        <time>2026-02-07T16:29:53.000Z</time>
      </trkpt>
      <trkpt lat="43.55805" lon="6.5611">
        <ele>255</ele>
        <time>2026-02-07T16:29:59.000Z</time>
      </trkpt>
      <trkpt lat="43.55801" lon="6.56116">
        <ele>255</ele>
        <time>2026-02-07T16:30:05.000Z</time>
      </trkpt>
      <trkpt lat="43.55792" lon="6.56132">
        <ele>254</ele>
        <time>2026-02-07T16:30:22.000Z</time>
      </trkpt>
      <trkpt lat="43.55779" lon="6.56144">
        <ele>253</ele>
        <time>2026-02-07T16:30:40.000Z</time>
      </trkpt>
      <trkpt lat="43.55776" lon="6.56149">
        <ele>253</ele>
        <time>2026-02-07T16:30:46.000Z</time>
      </trkpt>
      <trkpt lat="43.55772" lon="6.56157">
        <ele>252</ele>
        <time>2026-02-07T16:30:54.000Z</time>
      </trkpt>
      <trkpt lat="43.55761" lon="6.56172">
        <ele>250</ele>
        <time>2026-02-07T16:31:12.000Z</time>
      </trkpt>
      <trkpt lat="43.55757" lon="6.56178">
        <ele>250</ele>
        <time>2026-02-07T16:31:19.000Z</time>
      </trkpt>
      <trkpt lat="43.55752" lon="6.56191">
        <ele>249</ele>
        <time>2026-02-07T16:31:31.000Z</time>
      </trkpt>
      <trkpt lat="43.55748" lon="6.5621">
        <ele>249</ele>
        <time>2026-02-07T16:31:48.000Z</time>
      </trkpt>
      <trkpt lat="43.55747" lon="6.56226">
        <ele>248</ele>
        <time>2026-02-07T16:32:01.000Z</time>
      </trkpt>
      <trkpt lat="43.55746" lon="6.56247">
        <ele>246</ele>
        <time>2026-02-07T16:32:18.000Z</time>
      </trkpt>
      <trkpt lat="43.55747" lon="6.56254">
        <ele>246</ele>
        <time>2026-02-07T16:32:24.000Z</time>
      </trkpt>
      <trkpt lat="43.55746" lon="6.56273">
        <ele>244</ele>
        <time>2026-02-07T16:32:40.000Z</time>
      </trkpt>
      <trkpt lat="43.55744" lon="6.56291">
        <ele>242</ele>
        <time>2026-02-07T16:32:56.000Z</time>
      </trkpt>
      <trkpt lat="43.55738" lon="6.56327">
        <ele>238</ele>
        <time>2026-02-07T16:33:27.000Z</time>
      </trkpt>
      <trkpt lat="43.55735" lon="6.56343">
        <ele>235</ele>
        <time>2026-02-07T16:33:40.000Z</time>
      </trkpt>
      <trkpt lat="43.55727" lon="6.56362">
        <ele>235</ele>
        <time>2026-02-07T16:33:57.000Z</time>
      </trkpt>
      <trkpt lat="43.55718" lon="6.56382">
        <ele>236</ele>
        <time>2026-02-07T16:34:27.000Z</time>
      </trkpt>
      <trkpt lat="43.55705" lon="6.56399">
        <ele>236</ele>
        <time>2026-02-07T16:34:47.000Z</time>
      </trkpt>
      <trkpt lat="43.55691" lon="6.56417">
        <ele>238</ele>
        <time>2026-02-07T16:35:30.000Z</time>
      </trkpt>
      <trkpt lat="43.55681" lon="6.5643">
        <ele>239</ele>
        <time>2026-02-07T16:35:56.000Z</time>
      </trkpt>
      <trkpt lat="43.55677" lon="6.56434">
        <ele>240</ele>
        <time>2026-02-07T16:36:11.000Z</time>
      </trkpt>
      <trkpt lat="43.55662" lon="6.56456">
        <ele>241</ele>
        <time>2026-02-07T16:36:47.000Z</time>
      </trkpt>
      <trkpt lat="43.55649" lon="6.56479">
        <ele>243</ele>
        <time>2026-02-07T16:37:32.000Z</time>
      </trkpt>
      <trkpt lat="43.55638" lon="6.56495">
        <ele>245</ele>
        <time>2026-02-07T16:38:11.000Z</time>
      </trkpt>
      <trkpt lat="43.55628" lon="6.56509">
        <ele>247</ele>
        <time>2026-02-07T16:38:48.000Z</time>
      </trkpt>
      <trkpt lat="43.55625" lon="6.56515">
        <ele>247</ele>
        <time>2026-02-07T16:38:54.000Z</time>
      </trkpt>
      <trkpt lat="43.55618" lon="6.56527">
        <ele>248</ele>
        <time>2026-02-07T16:39:16.000Z</time>
      </trkpt>
      <trkpt lat="43.55609" lon="6.56564">
        <ele>247</ele>
        <time>2026-02-07T16:39:48.000Z</time>
      </trkpt>
      <trkpt lat="43.55599" lon="6.56589">
        <ele>248</ele>
        <time>2026-02-07T16:40:22.000Z</time>
      </trkpt>
      <trkpt lat="43.55591" lon="6.56604">
        <ele>249</ele>
        <time>2026-02-07T16:40:48.000Z</time>
      </trkpt>
      <trkpt lat="43.55582" lon="6.5662">
        <ele>249</ele>
        <time>2026-02-07T16:41:05.000Z</time>
      </trkpt>
      <trkpt lat="43.55571" lon="6.56634">
        <ele>251</ele>
        <time>2026-02-07T16:41:43.000Z</time>
      </trkpt>
      <trkpt lat="43.55556" lon="6.56655">
        <ele>253</ele>
        <time>2026-02-07T16:42:28.000Z</time>
      </trkpt>
      <trkpt lat="43.5554" lon="6.56683">
        <ele>253</ele>
        <time>2026-02-07T16:42:58.000Z</time>
      </trkpt>
      <trkpt lat="43.55523" lon="6.56708">
        <ele>254</ele>
        <time>2026-02-07T16:43:36.000Z</time>
      </trkpt>
      <trkpt lat="43.55522" lon="6.56706">
        <ele>255</ele>
        <time>2026-02-07T16:43:49.000Z</time>
      </trkpt>
      <trkpt lat="43.55519" lon="6.5671">
        <ele>254</ele>
        <time>2026-02-07T16:43:54.000Z</time>
      </trkpt>
      <trkpt lat="43.55431" lon="6.56791">
        <ele>256</ele>
        <time>2026-02-07T16:46:15.000Z</time>
      </trkpt>
      <trkpt lat="43.55381" lon="6.56818">
        <ele>262</ele>
        <time>2026-02-07T16:48:18.000Z</time>
      </trkpt>
      <trkpt lat="43.55283" lon="6.56904">
        <ele>255</ele>
        <time>2026-02-07T16:50:31.000Z</time>
      </trkpt>
      <trkpt lat="43.55221" lon="6.56931">
        <ele>242</ele>
        <time>2026-02-07T16:51:45.000Z</time>
      </trkpt>
      <trkpt lat="43.55186" lon="6.56962">
        <ele>236</ele>
        <time>2026-02-07T16:52:33.000Z</time>
      </trkpt>
      <trkpt lat="43.55164" lon="6.56969">
        <ele>234</ele>
        <time>2026-02-07T16:52:59.000Z</time>
      </trkpt>
      <trkpt lat="43.55112" lon="6.57">
        <ele>227</ele>
        <time>2026-02-07T16:54:04.000Z</time>
      </trkpt>
      <trkpt lat="43.55039" lon="6.57014">
        <ele>220</ele>
        <time>2026-02-07T16:55:28.000Z</time>
      </trkpt>
      <trkpt lat="43.55038" lon="6.57006">
        <ele>220</ele>
        <time>2026-02-07T16:55:35.000Z</time>
      </trkpt>
      <trkpt lat="43.5503" lon="6.56997">
        <ele>221</ele>
        <time>2026-02-07T16:55:57.000Z</time>
      </trkpt>
      <trkpt lat="43.55015" lon="6.56989">
        <ele>219</ele>
        <time>2026-02-07T16:56:16.000Z</time>
      </trkpt>
      <trkpt lat="43.55015" lon="6.56989">
        <ele>219</ele>
        <time>2026-02-07T16:56:16.000Z</time>
      </trkpt>
      <trkpt lat="43.55005" lon="6.56985">
        <ele>219</ele>
        <time>2026-02-07T16:56:27.000Z</time>
      </trkpt>
      <trkpt lat="43.54998" lon="6.57036">
        <ele>214</ele>
        <time>2026-02-07T16:57:10.000Z</time>
      </trkpt>
      <trkpt lat="43.54996" lon="6.57066">
        <ele>210</ele>
        <time>2026-02-07T16:57:35.000Z</time>
      </trkpt>
      <trkpt lat="43.54987" lon="6.5709">
        <ele>205</ele>
        <time>2026-02-07T16:57:58.000Z</time>
      </trkpt>
      <trkpt lat="43.54974" lon="6.57078">
        <ele>202</ele>
        <time>2026-02-07T16:58:16.000Z</time>
      </trkpt>
      <trkpt lat="43.54972" lon="6.57071">
        <ele>201</ele>
        <time>2026-02-07T16:58:22.000Z</time>
      </trkpt>
      <trkpt lat="43.54957" lon="6.57094">
        <ele>196</ele>
        <time>2026-02-07T16:58:47.000Z</time>
      </trkpt>
      <trkpt lat="43.54952" lon="6.57116">
        <ele>194</ele>
        <time>2026-02-07T16:59:07.000Z</time>
      </trkpt>
      <trkpt lat="43.54956" lon="6.57117">
        <ele>197</ele>
        <time>2026-02-07T16:59:43.000Z</time>
      </trkpt>
      <trkpt lat="43.54959" lon="6.57125">
        <ele>197</ele>
        <time>2026-02-07T16:59:50.000Z</time>
      </trkpt>
      <trkpt lat="43.54973" lon="6.57141">
        <ele>189</ele>
        <time>2026-02-07T17:00:11.000Z</time>
      </trkpt>
      <trkpt lat="43.54976" lon="6.57146">
        <ele>186</ele>
        <time>2026-02-07T17:00:16.000Z</time>
      </trkpt>
      <trkpt lat="43.54979" lon="6.5715">
        <ele>184</ele>
        <time>2026-02-07T17:00:21.000Z</time>
      </trkpt>
      <trkpt lat="43.54984" lon="6.57152">
        <ele>180</ele>
        <time>2026-02-07T17:00:26.000Z</time>
      </trkpt>
      <trkpt lat="43.54987" lon="6.57156">
        <ele>178</ele>
        <time>2026-02-07T17:00:31.000Z</time>
      </trkpt>
      <trkpt lat="43.55005" lon="6.57173">
        <ele>170</ele>
        <time>2026-02-07T17:00:55.000Z</time>
      </trkpt>
      <trkpt lat="43.55011" lon="6.57175">
        <ele>170</ele>
        <time>2026-02-07T17:01:02.000Z</time>
      </trkpt>
      <trkpt lat="43.55026" lon="6.57184">
        <ele>170</ele>
        <time>2026-02-07T17:01:21.000Z</time>
      </trkpt>
      <trkpt lat="43.5503" lon="6.5719">
        <ele>170</ele>
        <time>2026-02-07T17:01:28.000Z</time>
      </trkpt>
      <trkpt lat="43.55031" lon="6.57197">
        <ele>169</ele>
        <time>2026-02-07T17:01:34.000Z</time>
      </trkpt>
      <trkpt lat="43.55034" lon="6.57203">
        <ele>169</ele>
        <time>2026-02-07T17:01:39.000Z</time>
      </trkpt>
      <trkpt lat="43.55027" lon="6.57205">
        <ele>170</ele>
        <time>2026-02-07T17:01:57.000Z</time>
      </trkpt>
      <trkpt lat="43.55012" lon="6.57207">
        <ele>169</ele>
        <time>2026-02-07T17:02:15.000Z</time>
      </trkpt>
      <trkpt lat="43.54999" lon="6.57218">
        <ele>168</ele>
        <time>2026-02-07T17:02:32.000Z</time>
      </trkpt>
      <trkpt lat="43.54992" lon="6.57225">
        <ele>168</ele>
        <time>2026-02-07T17:02:42.000Z</time>
      </trkpt>
      <trkpt lat="43.54988" lon="6.57234">
        <ele>167</ele>
        <time>2026-02-07T17:02:51.000Z</time>
      </trkpt>
      <trkpt lat="43.54977" lon="6.57247">
        <ele>167</ele>
        <time>2026-02-07T17:03:08.000Z</time>
      </trkpt>
      <trkpt lat="43.54967" lon="6.57256">
        <ele>167</ele>
        <time>2026-02-07T17:03:21.000Z</time>
      </trkpt>
      <trkpt lat="43.54954" lon="6.57268">
        <ele>167</ele>
        <time>2026-02-07T17:03:39.000Z</time>
      </trkpt>
      <trkpt lat="43.54945" lon="6.57277">
        <ele>167</ele>
        <time>2026-02-07T17:03:52.000Z</time>
      </trkpt>
      <trkpt lat="43.54937" lon="6.57285">
        <ele>167</ele>
        <time>2026-02-07T17:04:03.000Z</time>
      </trkpt>
      <trkpt lat="43.54932" lon="6.57292">
        <ele>168</ele>
        <time>2026-02-07T17:04:21.000Z</time>
      </trkpt>
      <trkpt lat="43.54927" lon="6.573">
        <ele>168</ele>
        <time>2026-02-07T17:04:30.000Z</time>
      </trkpt>
      <trkpt lat="43.54918" lon="6.57316">
        <ele>170</ele>
        <time>2026-02-07T17:05:08.000Z</time>
      </trkpt>
      <trkpt lat="43.54912" lon="6.57325">
        <ele>171</ele>
        <time>2026-02-07T17:05:28.000Z</time>
      </trkpt>
      <trkpt lat="43.54907" lon="6.57328">
        <ele>171</ele>
        <time>2026-02-07T17:05:34.000Z</time>
      </trkpt>
      <trkpt lat="43.54902" lon="6.57334">
        <ele>171</ele>
        <time>2026-02-07T17:05:41.000Z</time>
      </trkpt>
      <trkpt lat="43.54903" lon="6.57336">
        <ele>172</ele>
        <time>2026-02-07T17:05:53.000Z</time>
      </trkpt>
      <trkpt lat="43.54904" lon="6.57335">
        <ele>172</ele>
        <time>2026-02-07T17:05:53.000Z</time>
      </trkpt>
      <trkpt lat="43.54953" lon="6.57272">
        <ele>168</ele>
        <time>2026-02-07T17:07:10.000Z</time>
      </trkpt>
      <trkpt lat="43.54969" lon="6.57257">
        <ele>167</ele>
        <time>2026-02-07T17:07:33.000Z</time>
      </trkpt>
      <trkpt lat="43.54971" lon="6.57254">
        <ele>167</ele>
        <time>2026-02-07T17:07:36.000Z</time>
      </trkpt>
      <trkpt lat="43.54986" lon="6.57228">
        <ele>167</ele>
        <time>2026-02-07T17:08:04.000Z</time>
      </trkpt>
      <trkpt lat="43.55005" lon="6.57213">
        <ele>168</ele>
        <time>2026-02-07T17:08:39.000Z</time>
      </trkpt>
      <trkpt lat="43.55021" lon="6.57212">
        <ele>169</ele>
        <time>2026-02-07T17:09:09.000Z</time>
      </trkpt>
      <trkpt lat="43.55052" lon="6.57221">
        <ele>168</ele>
        <time>2026-02-07T17:09:44.000Z</time>
      </trkpt>
      <trkpt lat="43.55054" lon="6.57222">
        <ele>168</ele>
        <time>2026-02-07T17:09:47.000Z</time>
      </trkpt>
      <trkpt lat="43.55073" lon="6.5722">
        <ele>170</ele>
        <time>2026-02-07T17:10:30.000Z</time>
      </trkpt>
      <trkpt lat="43.55072" lon="6.57207">
        <ele>171</ele>
        <time>2026-02-07T17:10:51.000Z</time>
      </trkpt>
      <trkpt lat="43.55059" lon="6.57188">
        <ele>173</ele>
        <time>2026-02-07T17:11:33.000Z</time>
      </trkpt>
      <trkpt lat="43.55054" lon="6.57183">
        <ele>174</ele>
        <time>2026-02-07T17:11:51.000Z</time>
      </trkpt>
      <trkpt lat="43.55009" lon="6.57151">
        <ele>182</ele>
        <time>2026-02-07T17:14:12.000Z</time>
      </trkpt>
      <trkpt lat="43.54997" lon="6.57147">
        <ele>183</ele>
        <time>2026-02-07T17:14:36.000Z</time>
      </trkpt>
      <trkpt lat="43.54992" lon="6.57146">
        <ele>183</ele>
        <time>2026-02-07T17:14:42.000Z</time>
      </trkpt>
      <trkpt lat="43.54958" lon="6.57141">
        <ele>190</ele>
        <time>2026-02-07T17:16:34.000Z</time>
      </trkpt>
      <trkpt lat="43.54956" lon="6.5714">
        <ele>191</ele>
        <time>2026-02-07T17:16:46.000Z</time>
      </trkpt>
      <trkpt lat="43.5495" lon="6.57135">
        <ele>191</ele>
        <time>2026-02-07T17:16:54.000Z</time>
      </trkpt>
      <trkpt lat="43.54953" lon="6.57108">
        <ele>195</ele>
        <time>2026-02-07T17:17:58.000Z</time>
      </trkpt>
      <trkpt lat="43.54957" lon="6.57094">
        <ele>196</ele>
        <time>2026-02-07T17:18:21.000Z</time>
      </trkpt>
      <trkpt lat="43.54972" lon="6.57071">
        <ele>201</ele>
        <time>2026-02-07T17:19:38.000Z</time>
      </trkpt>
      <trkpt lat="43.54972" lon="6.57055">
        <ele>200</ele>
        <time>2026-02-07T17:19:51.000Z</time>
      </trkpt>
      <trkpt lat="43.54973" lon="6.57048">
        <ele>200</ele>
        <time>2026-02-07T17:19:57.000Z</time>
      </trkpt>
      <trkpt lat="43.54958" lon="6.56958">
        <ele>200</ele>
        <time>2026-02-07T17:21:14.000Z</time>
      </trkpt>
      <trkpt lat="43.54949" lon="6.56937">
        <ele>201</ele>
        <time>2026-02-07T17:21:44.000Z</time>
      </trkpt>
      <trkpt lat="43.54946" lon="6.56928">
        <ele>199</ele>
        <time>2026-02-07T17:21:52.000Z</time>
      </trkpt>
      <trkpt lat="43.54939" lon="6.56915">
        <ele>196</ele>
        <time>2026-02-07T17:22:05.000Z</time>
      </trkpt>
      <trkpt lat="43.54938" lon="6.56901">
        <ele>194</ele>
        <time>2026-02-07T17:22:17.000Z</time>
      </trkpt>
      <trkpt lat="43.54942" lon="6.5688">
        <ele>194</ele>
        <time>2026-02-07T17:22:35.000Z</time>
      </trkpt>
      <trkpt lat="43.54939" lon="6.5686">
        <ele>194</ele>
        <time>2026-02-07T17:22:52.000Z</time>
      </trkpt>
      <trkpt lat="43.54928" lon="6.56821">
        <ele>193</ele>
        <time>2026-02-07T17:23:27.000Z</time>
      </trkpt>
      <trkpt lat="43.54904" lon="6.56778">
        <ele>193</ele>
        <time>2026-02-07T17:24:12.000Z</time>
      </trkpt>
      <trkpt lat="43.54902" lon="6.56767">
        <ele>193</ele>
        <time>2026-02-07T17:24:22.000Z</time>
      </trkpt>
      <trkpt lat="43.54901" lon="6.5676">
        <ele>193</ele>
        <time>2026-02-07T17:24:28.000Z</time>
      </trkpt>
      <trkpt lat="43.54888" lon="6.56712">
        <ele>197</ele>
        <time>2026-02-07T17:25:52.000Z</time>
      </trkpt>
      <trkpt lat="43.54892" lon="6.56684">
        <ele>199</ele>
        <time>2026-02-07T17:26:36.000Z</time>
      </trkpt>
      <trkpt lat="43.5489" lon="6.56665">
        <ele>199</ele>
        <time>2026-02-07T17:26:52.000Z</time>
      </trkpt>
      <trkpt lat="43.54886" lon="6.56639">
        <ele>197</ele>
        <time>2026-02-07T17:27:14.000Z</time>
      </trkpt>
      <trkpt lat="43.54884" lon="6.56611">
        <ele>200</ele>
        <time>2026-02-07T17:28:08.000Z</time>
      </trkpt>
      <trkpt lat="43.54873" lon="6.56579">
        <ele>200</ele>
        <time>2026-02-07T17:28:37.000Z</time>
      </trkpt>
      <trkpt lat="43.54863" lon="6.56567">
        <ele>202</ele>
        <time>2026-02-07T17:29:12.000Z</time>
      </trkpt>
      <trkpt lat="43.54845" lon="6.56539">
        <ele>199</ele>
        <time>2026-02-07T17:29:44.000Z</time>
      </trkpt>
      <trkpt lat="43.54841" lon="6.56514">
        <ele>199</ele>
        <time>2026-02-07T17:30:05.000Z</time>
      </trkpt>
      <trkpt lat="43.5484" lon="6.56509">
        <ele>200</ele>
        <time>2026-02-07T17:30:20.000Z</time>
      </trkpt>
      <trkpt lat="43.54836" lon="6.56487">
        <ele>206</ele>
        <time>2026-02-07T17:31:40.000Z</time>
      </trkpt>
      <trkpt lat="43.54828" lon="6.56474">
        <ele>209</ele>
        <time>2026-02-07T17:32:25.000Z</time>
      </trkpt>
      <trkpt lat="43.54805" lon="6.56457">
        <ele>210</ele>
        <time>2026-02-07T17:33:05.000Z</time>
      </trkpt>
      <trkpt lat="43.548" lon="6.5645">
        <ele>210</ele>
        <time>2026-02-07T17:33:14.000Z</time>
      </trkpt>
      <trkpt lat="43.54799" lon="6.5644">
        <ele>211</ele>
        <time>2026-02-07T17:33:32.000Z</time>
      </trkpt>
      <trkpt lat="43.54803" lon="6.56425">
        <ele>212</ele>
        <time>2026-02-07T17:33:56.000Z</time>
      </trkpt>
      <trkpt lat="43.54811" lon="6.56418">
        <ele>215</ele>
        <time>2026-02-07T17:34:37.000Z</time>
      </trkpt>
      <trkpt lat="43.54832" lon="6.56412">
        <ele>220</ele>
        <time>2026-02-07T17:35:53.000Z</time>
      </trkpt>
      <trkpt lat="43.54846" lon="6.56388">
        <ele>223</ele>
        <time>2026-02-07T17:36:49.000Z</time>
      </trkpt>
      <trkpt lat="43.5485" lon="6.56382">
        <ele>224</ele>
        <time>2026-02-07T17:37:06.000Z</time>
      </trkpt>
      <trkpt lat="43.54867" lon="6.56362">
        <ele>227</ele>
        <time>2026-02-07T17:38:03.000Z</time>
      </trkpt>
      <trkpt lat="43.54902" lon="6.5636">
        <ele>234</ele>
        <time>2026-02-07T17:39:54.000Z</time>
      </trkpt>
      <trkpt lat="43.54909" lon="6.56355">
        <ele>235</ele>
        <time>2026-02-07T17:40:13.000Z</time>
      </trkpt>
      <trkpt lat="43.54917" lon="6.56346">
        <ele>236</ele>
        <time>2026-02-07T17:40:35.000Z</time>
      </trkpt>
      <trkpt lat="43.54932" lon="6.56303">
        <ele>237</ele>
        <time>2026-02-07T17:41:25.000Z</time>
      </trkpt>
      <trkpt lat="43.54941" lon="6.56289">
        <ele>239</ele>
        <time>2026-02-07T17:42:02.000Z</time>
      </trkpt>
      <trkpt lat="43.54942" lon="6.56289">
        <ele>239</ele>
        <time>2026-02-07T17:42:03.000Z</time>
      </trkpt>
      <trkpt lat="43.54961" lon="6.56291">
        <ele>243</ele>
        <time>2026-02-07T17:43:06.000Z</time>
      </trkpt>
      <trkpt lat="43.54964" lon="6.56265">
        <ele>242</ele>
        <time>2026-02-07T17:43:28.000Z</time>
      </trkpt>
      <trkpt lat="43.54967" lon="6.5617">
        <ele>236</ele>
        <time>2026-02-07T17:44:47.000Z</time>
      </trkpt>
      <trkpt lat="43.54982" lon="6.5612">
        <ele>235</ele>
        <time>2026-02-07T17:45:32.000Z</time>
      </trkpt>
      <trkpt lat="43.54987" lon="6.56104">
        <ele>234</ele>
        <time>2026-02-07T17:45:46.000Z</time>
      </trkpt>
      <trkpt lat="43.54999" lon="6.56081">
        <ele>234</ele>
        <time>2026-02-07T17:46:09.000Z</time>
      </trkpt>
      <trkpt lat="43.55003" lon="6.56049">
        <ele>234</ele>
        <time>2026-02-07T17:46:36.000Z</time>
      </trkpt>
      <trkpt lat="43.55014" lon="6.56029">
        <ele>236</ele>
        <time>2026-02-07T17:47:17.000Z</time>
      </trkpt>
      <trkpt lat="43.55026" lon="6.56021">
        <ele>238</ele>
        <time>2026-02-07T17:47:54.000Z</time>
      </trkpt>
      <trkpt lat="43.55037" lon="6.5598">
        <ele>237</ele>
        <time>2026-02-07T17:48:30.000Z</time>
      </trkpt>
      <trkpt lat="43.55049" lon="6.55958">
        <ele>238</ele>
        <time>2026-02-07T17:49:03.000Z</time>
      </trkpt>
      <trkpt lat="43.55054" lon="6.55935">
        <ele>237</ele>
        <time>2026-02-07T17:49:23.000Z</time>
      </trkpt>
      <trkpt lat="43.55063" lon="6.55922">
        <ele>238</ele>
        <time>2026-02-07T17:49:48.000Z</time>
      </trkpt>
      <trkpt lat="43.55077" lon="6.55905">
        <ele>237</ele>
        <time>2026-02-07T17:50:09.000Z</time>
      </trkpt>
      <trkpt lat="43.55103" lon="6.55854">
        <ele>236</ele>
        <time>2026-02-07T17:51:01.000Z</time>
      </trkpt>
      <trkpt lat="43.55103" lon="6.55849">
        <ele>235</ele>
        <time>2026-02-07T17:51:05.000Z</time>
      </trkpt>
      <trkpt lat="43.55103" lon="6.55843">
        <ele>235</ele>
        <time>2026-02-07T17:51:10.000Z</time>
      </trkpt>
      <trkpt lat="43.55085" lon="6.55795">
        <ele>232</ele>
        <time>2026-02-07T17:51:55.000Z</time>
      </trkpt>
      <trkpt lat="43.55083" lon="6.5575">
        <ele>233</ele>
        <time>2026-02-07T17:52:42.000Z</time>
      </trkpt>
      <trkpt lat="43.55094" lon="6.55695">
        <ele>233</ele>
        <time>2026-02-07T17:53:30.000Z</time>
      </trkpt>
      <trkpt lat="43.55115" lon="6.55637">
        <ele>232</ele>
        <time>2026-02-07T17:54:23.000Z</time>
      </trkpt>
      <trkpt lat="43.55141" lon="6.55585">
        <ele>230</ele>
        <time>2026-02-07T17:55:16.000Z</time>
      </trkpt>
      <trkpt lat="43.55188" lon="6.55516">
        <ele>229</ele>
        <time>2026-02-07T17:56:35.000Z</time>
      </trkpt>
      <trkpt lat="43.55238" lon="6.55468">
        <ele>231</ele>
        <time>2026-02-07T17:58:05.000Z</time>
      </trkpt>
      <trkpt lat="43.55263" lon="6.55452">
        <ele>232</ele>
        <time>2026-02-07T17:58:48.000Z</time>
      </trkpt>
      <trkpt lat="43.55271" lon="6.55444">
        <ele>231</ele>
        <time>2026-02-07T17:58:59.000Z</time>
      </trkpt>
      <trkpt lat="43.55301" lon="6.55444">
        <ele>232</ele>
        <time>2026-02-07T17:59:44.000Z</time>
      </trkpt>
      <trkpt lat="43.55335" lon="6.55433">
        <ele>231</ele>
        <time>2026-02-07T18:00:24.000Z</time>
      </trkpt>
      <trkpt lat="43.55377" lon="6.55452">
        <ele>231</ele>
        <time>2026-02-07T18:01:13.000Z</time>
      </trkpt>
      <trkpt lat="43.5538" lon="6.55449">
        <ele>231</ele>
        <time>2026-02-07T18:01:18.000Z</time>
      </trkpt>
      <trkpt lat="43.55384" lon="6.55436">
        <ele>232</ele>
        <time>2026-02-07T18:01:40.000Z</time>
      </trkpt>
      <trkpt lat="43.5539" lon="6.5539">
        <ele>235</ele>
        <time>2026-02-07T18:02:49.000Z</time>
      </trkpt>
      <trkpt lat="43.55395" lon="6.55376">
        <ele>235</ele>
        <time>2026-02-07T18:03:02.000Z</time>
      </trkpt>
      <trkpt lat="43.55404" lon="6.55363">
        <ele>235</ele>
        <time>2026-02-07T18:03:17.000Z</time>
      </trkpt>
      <trkpt lat="43.55432" lon="6.55342">
        <ele>238</ele>
        <time>2026-02-07T18:04:25.000Z</time>
      </trkpt>
      <trkpt lat="43.55454" lon="6.55331">
        <ele>240</ele>
        <time>2026-02-07T18:05:12.000Z</time>
      </trkpt>
      <trkpt lat="43.5549" lon="6.55299">
        <ele>241</ele>
        <time>2026-02-07T18:06:12.000Z</time>
      </trkpt>
      <trkpt lat="43.55534" lon="6.5527">
        <ele>245</ele>
        <time>2026-02-07T18:07:49.000Z</time>
      </trkpt>
      <trkpt lat="43.55577" lon="6.55243">
        <ele>248</ele>
        <time>2026-02-07T18:09:13.000Z</time>
      </trkpt>
      <trkpt lat="43.55588" lon="6.55239">
        <ele>249</ele>
        <time>2026-02-07T18:09:36.000Z</time>
      </trkpt>
      <trkpt lat="43.55595" lon="6.5523">
        <ele>249</ele>
        <time>2026-02-07T18:09:47.000Z</time>
      </trkpt>
      <trkpt lat="43.55617" lon="6.55194">
        <ele>251</ele>
        <time>2026-02-07T18:10:47.000Z</time>
      </trkpt>
      <trkpt lat="43.55625" lon="6.55175">
        <ele>250</ele>
        <time>2026-02-07T18:11:06.000Z</time>
      </trkpt>
      <trkpt lat="43.55653" lon="6.55073">
        <ele>248</ele>
        <time>2026-02-07T18:12:36.000Z</time>
      </trkpt>
      <trkpt lat="43.55682" lon="6.5491">
        <ele>245</ele>
        <time>2026-02-07T18:14:55.000Z</time>
      </trkpt>
      <trkpt lat="43.55682" lon="6.54917">
        <ele>246</ele>
        <time>2026-02-07T18:15:12.000Z</time>
      </trkpt>
      <trkpt lat="43.55686" lon="6.54946">
        <ele>248</ele>
        <time>2026-02-07T18:15:57.000Z</time>
      </trkpt>
      <trkpt lat="43.55687" lon="6.54994">
        <ele>250</ele>
        <time>2026-02-07T18:16:57.000Z</time>
      </trkpt>
      <trkpt lat="43.55673" lon="6.55096">
        <ele>253</ele>
        <time>2026-02-07T18:18:54.000Z</time>
      </trkpt>
      <trkpt lat="43.55668" lon="6.55115">
        <ele>253</ele>
        <time>2026-02-07T18:19:11.000Z</time>
      </trkpt>
      <trkpt lat="43.55644" lon="6.55187">
        <ele>256</ele>
        <time>2026-02-07T18:20:47.000Z</time>
      </trkpt>
      <trkpt lat="43.5561" lon="6.55262">
        <ele>256</ele>
        <time>2026-02-07T18:22:01.000Z</time>
      </trkpt>
      <trkpt lat="43.55586" lon="6.55323">
        <ele>254</ele>
        <time>2026-02-07T18:22:59.000Z</time>
      </trkpt>
      <trkpt lat="43.55578" lon="6.55368">
        <ele>257</ele>
        <time>2026-02-07T18:24:09.000Z</time>
      </trkpt>
      <trkpt lat="43.55568" lon="6.55393">
        <ele>259</ele>
        <time>2026-02-07T18:24:53.000Z</time>
      </trkpt>
      <trkpt lat="43.55565" lon="6.55397">
        <ele>259</ele>
        <time>2026-02-07T18:24:57.000Z</time>
      </trkpt>
      <trkpt lat="43.55503" lon="6.55473">
        <ele>261</ele>
        <time>2026-02-07T18:26:53.000Z</time>
      </trkpt>
      <trkpt lat="43.55487" lon="6.55518">
        <ele>260</ele>
        <time>2026-02-07T18:27:34.000Z</time>
      </trkpt>
      <trkpt lat="43.55485" lon="6.55531">
        <ele>260</ele>
        <time>2026-02-07T18:27:45.000Z</time>
      </trkpt>
      <trkpt lat="43.55481" lon="6.5557">
        <ele>260</ele>
        <time>2026-02-07T18:28:18.000Z</time>
      </trkpt>
      <trkpt lat="43.55475" lon="6.55593">
        <ele>261</ele>
        <time>2026-02-07T18:28:48.000Z</time>
      </trkpt>
      <trkpt lat="43.5542" lon="6.55721">
        <ele>265</ele>
        <time>2026-02-07T18:31:32.000Z</time>
      </trkpt>
      <trkpt lat="43.55426" lon="6.55727">
        <ele>267</ele>
        <time>2026-02-07T18:32:02.000Z</time>
      </trkpt>
    </trkseg>
  </trk>
</gpx>